createdAt,value
2022-12-31T00:00:17.344Z,14.07
2022-12-31T00:02:46.083Z,14.06
2022-12-31T00:05:14.816Z,14.09
2022-12-31T00:07:43.520Z,14.10
2022-12-31T00:10:12.275Z,14.09
2022-12-31T00:12:41.143Z,14.09
2022-12-31T00:15:10.633Z,14.10
2022-12-31T00:17:41.329Z,14.07
2022-12-31T00:20:15.194Z,14.13
2022-12-31T00:22:44.069Z,14.09
2022-12-31T00:25:12.790Z,14.11
2022-12-31T00:27:41.480Z,14.11
2022-12-31T00:30:13.092Z,14.12
2022-12-31T00:32:43.705Z,14.11
2022-12-31T00:35:12.352Z,14.12
2022-12-31T00:37:41.032Z,14.11
2022-12-31T00:40:13.809Z,14.12
2022-12-31T00:42:42.446Z,14.12
2022-12-31T00:45:12.453Z,14.15
2022-12-31T00:47:42.999Z,14.15
2022-12-31T00:50:11.937Z,14.14
2022-12-31T00:52:40.543Z,14.12
2022-12-31T00:55:10.580Z,14.17
2022-12-31T00:57:39.202Z,14.17
2022-12-31T01:00:10.909Z,14.13
2022-12-31T01:02:39.753Z,14.09
2022-12-31T01:05:11.239Z,14.07
2022-12-31T01:07:40.042Z,14.07
2022-12-31T01:10:10.253Z,14.04
2022-12-31T01:12:38.894Z,14.03
2022-12-31T01:15:09.249Z,14.02
2022-12-31T01:17:43.878Z,14.00
2022-12-31T01:20:14.656Z,14.01
2022-12-31T01:22:43.308Z,14.00
2022-12-31T01:25:11.960Z,13.94
2022-12-31T01:27:40.535Z,13.94
2022-12-31T01:30:11.473Z,13.95
2022-12-31T01:32:40.141Z,13.90
2022-12-31T01:35:10.186Z,13.89
2022-12-31T01:37:40.753Z,13.86
2022-12-31T01:40:10.710Z,13.84
2022-12-31T01:42:39.462Z,13.84
2022-12-31T01:45:13.982Z,13.86
2022-12-31T01:47:46.998Z,13.89
2022-12-31T01:50:22.917Z,13.87
2022-12-31T01:53:00.515Z,13.88
2022-12-31T01:55:34.245Z,13.83
2022-12-31T01:58:07.968Z,13.82
2022-12-31T02:00:36.975Z,13.83
2022-12-31T02:03:07.162Z,13.86
2022-12-31T02:05:40.991Z,13.84
2022-12-31T02:08:12.282Z,13.83
2022-12-31T02:10:41.211Z,13.85
2022-12-31T02:13:10.117Z,13.85
2022-12-31T02:15:49.366Z,13.82
2022-12-31T02:18:31.894Z,13.81
2022-12-31T02:21:32.242Z,13.75
2022-12-31T02:24:54.866Z,13.78
2022-12-31T02:27:41.346Z,13.78
2022-12-31T02:30:23.138Z,13.71
2022-12-31T02:33:11.544Z,13.70
2022-12-31T02:35:50.233Z,13.72
2022-12-31T02:38:32.000Z,13.66
2022-12-31T02:41:01.687Z,13.62
2022-12-31T02:43:30.645Z,13.63
2022-12-31T02:46:14.657Z,13.59
2022-12-31T02:48:55.591Z,13.56
2022-12-31T02:51:36.497Z,13.57
2022-12-31T02:54:20.805Z,13.53
2022-12-31T02:57:05.213Z,13.57
2022-12-31T02:59:53.650Z,13.56
2022-12-31T03:02:29.582Z,13.55
2022-12-31T03:05:02.514Z,13.55
2022-12-31T03:07:34.237Z,13.52
2022-12-31T03:10:03.546Z,13.54
2022-12-31T03:12:46.143Z,13.51
2022-12-31T03:15:21.778Z,13.56
2022-12-31T03:17:57.988Z,13.51
2022-12-31T03:20:43.792Z,13.52
2022-12-31T03:23:16.372Z,13.49
2022-12-31T03:25:44.314Z,13.50
2022-12-31T03:28:19.406Z,13.48
2022-12-31T03:30:51.044Z,13.44
2022-12-31T03:33:24.411Z,13.40
2022-12-31T03:35:54.823Z,13.42
2022-12-31T03:38:23.786Z,13.38
2022-12-31T03:40:54.939Z,13.32
2022-12-31T03:43:23.572Z,13.28
2022-12-31T03:45:54.237Z,13.28
2022-12-31T03:48:25.452Z,13.27
2022-12-31T03:50:54.321Z,13.23
2022-12-31T03:53:23.004Z,13.21
2022-12-31T03:55:53.408Z,13.19
2022-12-31T03:58:22.854Z,13.19
2022-12-31T04:00:52.192Z,13.18
2022-12-31T04:03:20.951Z,13.15
2022-12-31T04:05:56.548Z,13.14
2022-12-31T04:08:25.384Z,13.14
2022-12-31T04:10:54.037Z,13.11
2022-12-31T04:13:22.629Z,13.11
2022-12-31T04:15:52.528Z,13.12
2022-12-31T04:18:21.143Z,13.09
2022-12-31T04:20:50.126Z,13.11
2022-12-31T04:23:20.751Z,13.09
2022-12-31T04:25:49.418Z,13.10
2022-12-31T04:28:20.073Z,13.09
2022-12-31T04:30:48.785Z,13.08
2022-12-31T04:33:17.373Z,13.03
2022-12-31T04:35:46.083Z,13.06
2022-12-31T04:38:14.712Z,13.02
2022-12-31T04:40:59.891Z,13.03
2022-12-31T04:43:28.550Z,12.99
2022-12-31T04:45:57.162Z,12.97
2022-12-31T04:48:25.918Z,13.00
2022-12-31T04:50:54.648Z,12.98
2022-12-31T04:53:23.964Z,13.01
2022-12-31T04:56:00.710Z,13.01
2022-12-31T04:58:29.402Z,13.00
2022-12-31T05:00:58.154Z,12.98
2022-12-31T05:03:28.262Z,13.01
2022-12-31T05:06:03.413Z,12.97
2022-12-31T05:08:32.759Z,12.95
2022-12-31T05:11:03.410Z,12.98
2022-12-31T05:13:33.573Z,12.99
2022-12-31T05:16:02.763Z,12.96
2022-12-31T05:18:32.513Z,13.00
2022-12-31T05:21:01.502Z,13.02
2022-12-31T05:23:30.665Z,13.01
2022-12-31T05:25:59.785Z,13.02
2022-12-31T05:28:31.962Z,13.05
2022-12-31T05:31:00.914Z,13.17
2022-12-31T05:33:29.543Z,13.15
2022-12-31T05:35:59.491Z,13.23
2022-12-31T05:38:28.376Z,13.24
2022-12-31T05:41:09.301Z,13.23
2022-12-31T05:43:39.819Z,13.28
2022-12-31T05:46:08.703Z,13.34
2022-12-31T05:48:37.350Z,13.36
2022-12-31T05:51:06.688Z,13.42
2022-12-31T05:53:35.359Z,13.47
2022-12-31T05:56:03.971Z,13.50
2022-12-31T05:58:32.750Z,13.51
2022-12-31T06:01:03.420Z,13.56
2022-12-31T06:03:32.320Z,13.56
2022-12-31T06:06:03.079Z,13.61
2022-12-31T06:08:31.754Z,13.64
2022-12-31T06:11:00.485Z,13.67
2022-12-31T06:13:29.184Z,13.69
2022-12-31T06:15:57.895Z,13.72
2022-12-31T06:18:28.432Z,13.73
2022-12-31T06:21:00.057Z,13.74
2022-12-31T06:23:29.025Z,13.76
2022-12-31T06:25:57.699Z,13.84
2022-12-31T06:28:26.385Z,13.86
2022-12-31T06:31:01.270Z,13.85
2022-12-31T06:33:32.667Z,13.88
2022-12-31T06:36:03.430Z,13.92
2022-12-31T06:38:34.572Z,13.96
2022-12-31T06:41:05.223Z,14.02
2022-12-31T06:43:34.330Z,14.07
2022-12-31T06:46:03.658Z,14.11
2022-12-31T06:48:34.673Z,14.15
2022-12-31T06:51:06.156Z,14.25
2022-12-31T06:53:35.358Z,14.26
2022-12-31T06:56:08.425Z,14.34
2022-12-31T06:58:38.233Z,14.43
2022-12-31T07:01:30.475Z,14.46
2022-12-31T07:04:21.381Z,14.54
2022-12-31T07:06:57.947Z,14.60
2022-12-31T07:09:35.820Z,14.66
2022-12-31T07:12:13.047Z,14.70
2022-12-31T07:14:47.874Z,14.77
2022-12-31T07:17:29.381Z,14.74
2022-12-31T07:20:06.713Z,14.81
2022-12-31T07:22:36.489Z,14.84
2022-12-31T07:25:07.994Z,14.83
2022-12-31T07:27:57.581Z,14.90
2022-12-31T07:30:37.441Z,14.90
2022-12-31T07:33:34.364Z,14.95
2022-12-31T07:36:20.617Z,14.90
2022-12-31T07:38:55.615Z,14.96
2022-12-31T07:41:44.185Z,14.92
2022-12-31T07:44:36.720Z,14.97
2022-12-31T07:47:13.333Z,15.04
2022-12-31T07:49:44.564Z,14.99
2022-12-31T07:52:16.646Z,15.08
2022-12-31T07:54:45.664Z,15.08
2022-12-31T07:57:16.483Z,15.05
2022-12-31T08:00:05.540Z,15.04
2022-12-31T08:03:10.519Z,15.03
2022-12-31T08:05:51.383Z,15.06
2022-12-31T08:08:36.453Z,15.03
2022-12-31T08:11:15.883Z,15.04
2022-12-31T08:13:45.329Z,15.12
2022-12-31T08:16:16.033Z,15.05
2022-12-31T08:18:45.447Z,15.04
2022-12-31T08:21:29.550Z,15.01
2022-12-31T08:24:15.336Z,14.99
2022-12-31T08:26:57.887Z,15.07
2022-12-31T08:29:37.228Z,15.05
2022-12-31T08:32:14.205Z,15.07
2022-12-31T08:34:53.051Z,15.04
2022-12-31T08:37:32.840Z,15.09
2022-12-31T08:40:21.176Z,14.96
2022-12-31T08:43:17.564Z,14.98
2022-12-31T08:45:51.114Z,14.99
2022-12-31T08:48:31.783Z,14.96
2022-12-31T08:51:01.410Z,14.98
2022-12-31T08:53:31.436Z,15.04
2022-12-31T08:56:09.135Z,15.00
2022-12-31T08:58:51.565Z,15.05
2022-12-31T09:01:26.396Z,15.10
2022-12-31T09:04:21.725Z,15.06
2022-12-31T09:06:58.978Z,15.07
2022-12-31T09:09:42.486Z,15.11
2022-12-31T09:12:24.082Z,15.17
2022-12-31T09:14:59.877Z,15.17
2022-12-31T09:17:45.396Z,15.21
2022-12-31T09:20:23.474Z,15.25
2022-12-31T09:22:54.043Z,15.32
2022-12-31T09:25:25.900Z,15.27
2022-12-31T09:28:06.422Z,15.20
2022-12-31T09:30:47.066Z,15.38
2022-12-31T09:33:32.430Z,15.39
2022-12-31T09:36:06.829Z,15.40
2022-12-31T09:38:45.272Z,15.42
2022-12-31T09:41:17.572Z,15.47
2022-12-31T09:44:39.538Z,15.48
2022-12-31T09:48:01.660Z,15.52
2022-12-31T09:50:52.036Z,15.59
2022-12-31T09:53:54.643Z,15.60
2022-12-31T09:56:30.758Z,15.68
2022-12-31T09:59:07.800Z,15.72
2022-12-31T10:01:56.024Z,15.75
2022-12-31T10:04:44.071Z,15.81
2022-12-31T10:07:34.059Z,15.80
2022-12-31T10:10:14.834Z,15.91
2022-12-31T10:13:30.317Z,15.87
2022-12-31T10:16:32.554Z,15.94
2022-12-31T10:19:17.873Z,15.96
2022-12-31T10:22:02.231Z,16.01
2022-12-31T10:24:54.685Z,16.02
2022-12-31T10:27:43.621Z,16.05
2022-12-31T10:30:18.742Z,16.09
2022-12-31T10:33:08.868Z,16.11
2022-12-31T10:35:45.059Z,16.14
2022-12-31T10:38:31.293Z,16.15
2022-12-31T10:42:03.658Z,16.22
2022-12-31T10:45:08.763Z,16.25
2022-12-31T10:48:39.016Z,16.33
2022-12-31T10:51:43.126Z,16.36
2022-12-31T10:54:39.720Z,16.37
2022-12-31T10:57:52.028Z,16.38
2022-12-31T11:00:21.937Z,16.41
2022-12-31T11:03:40.278Z,16.36
2022-12-31T11:07:13.279Z,16.37
2022-12-31T11:10:27.814Z,16.35
2022-12-31T11:13:43.380Z,16.31
2022-12-31T11:16:29.920Z,16.33
2022-12-31T11:19:06.348Z,16.33
2022-12-31T11:21:52.211Z,16.32
2022-12-31T11:24:37.410Z,16.31
2022-12-31T11:27:23.812Z,16.35
2022-12-31T11:30:07.590Z,16.31
2022-12-31T11:32:54.103Z,16.38
2022-12-31T11:35:38.769Z,16.43
2022-12-31T11:38:23.071Z,16.48
2022-12-31T11:41:02.116Z,16.52
2022-12-31T11:43:38.841Z,16.52
2022-12-31T11:46:48.544Z,16.49
2022-12-31T11:49:42.617Z,16.52
2022-12-31T11:52:48.264Z,16.56
2022-12-31T11:55:42.789Z,16.56
2022-12-31T11:58:16.820Z,16.63
2022-12-31T12:00:57.036Z,16.60
2022-12-31T12:03:26.552Z,16.62
2022-12-31T12:05:57.495Z,16.61
2022-12-31T12:08:27.986Z,16.67
2022-12-31T12:11:08.043Z,16.64
2022-12-31T12:13:36.803Z,16.65
2022-12-31T12:16:09.281Z,16.61
2022-12-31T12:18:44.066Z,16.59
2022-12-31T12:21:15.920Z,16.56
2022-12-31T12:23:56.387Z,16.51
2022-12-31T12:26:36.238Z,16.57
2022-12-31T12:29:12.575Z,16.53
2022-12-31T12:31:42.047Z,16.60
2022-12-31T12:34:26.622Z,16.60
2022-12-31T12:36:55.333Z,16.61
2022-12-31T12:39:29.475Z,16.64
2022-12-31T12:42:06.064Z,16.69
2022-12-31T12:44:35.223Z,16.69
2022-12-31T12:47:06.582Z,16.73
2022-12-31T12:49:42.681Z,16.67
2022-12-31T12:53:04.324Z,16.71
2022-12-31T12:55:48.122Z,16.71
2022-12-31T12:58:35.847Z,16.73
2022-12-31T13:01:14.737Z,16.71
2022-12-31T13:04:40.195Z,16.72
2022-12-31T13:07:23.307Z,16.70
2022-12-31T13:10:17.319Z,16.59
2022-12-31T13:13:23.887Z,16.62
2022-12-31T13:15:58.441Z,16.60
2022-12-31T13:18:46.092Z,16.56
2022-12-31T13:21:43.248Z,16.52
2022-12-31T13:24:28.749Z,16.50
2022-12-31T13:27:05.782Z,16.49
2022-12-31T13:29:36.883Z,16.47
2022-12-31T13:32:10.711Z,16.46
2022-12-31T13:34:45.836Z,16.44
2022-12-31T13:37:28.236Z,16.45
2022-12-31T13:40:04.407Z,16.46
2022-12-31T13:42:43.767Z,16.42
2022-12-31T13:45:18.146Z,16.42
2022-12-31T13:47:55.381Z,16.40
2022-12-31T13:50:31.019Z,16.44
2022-12-31T13:53:08.656Z,16.42
2022-12-31T13:55:43.770Z,16.41
2022-12-31T13:58:24.603Z,16.39
2022-12-31T14:01:04.650Z,16.37
2022-12-31T14:03:46.398Z,16.31
2022-12-31T14:06:26.976Z,16.33
2022-12-31T14:08:55.822Z,16.34
2022-12-31T14:11:45.556Z,16.28
2022-12-31T14:14:30.336Z,16.24
2022-12-31T14:17:06.860Z,16.27
2022-12-31T14:19:54.707Z,16.26
2022-12-31T14:22:36.189Z,16.16
2022-12-31T14:25:10.273Z,16.14
2022-12-31T14:27:43.507Z,16.10
2022-12-31T14:30:19.447Z,16.08
2022-12-31T14:33:30.459Z,16.05
2022-12-31T14:36:19.135Z,16.04
2022-12-31T14:39:09.374Z,16.01
2022-12-31T14:41:54.050Z,16.01
2022-12-31T14:44:42.424Z,15.96
2022-12-31T14:47:36.877Z,16.01
2022-12-31T14:50:13.267Z,16.02
2022-12-31T14:52:55.242Z,16.03
2022-12-31T14:55:27.679Z,15.96
2022-12-31T15:00:56.297Z,15.97
2022-12-31T15:03:34.085Z,15.99
2022-12-31T15:06:17.330Z,16.00
2022-12-31T15:09:07.899Z,15.92
2022-12-31T15:11:53.500Z,15.95
2022-12-31T15:14:54.486Z,15.88
2022-12-31T16:01:51.250Z,16.76
2022-12-31T16:04:40.007Z,16.80
2022-12-31T16:07:19.025Z,16.81
2022-12-31T16:10:19.022Z,16.82
2022-12-31T16:12:48.338Z,16.88
2022-12-31T16:15:28.905Z,16.86
2022-12-31T16:18:06.077Z,16.87
2022-12-31T16:20:42.147Z,16.90
2022-12-31T16:23:23.335Z,16.82
2022-12-31T16:25:57.856Z,16.89
2022-12-31T16:28:31.469Z,16.86
2022-12-31T16:31:09.023Z,16.86
2022-12-31T16:36:21.021Z,16.73
2022-12-31T16:39:23.861Z,16.75
2022-12-31T16:41:53.641Z,16.76
2022-12-31T16:44:31.110Z,16.77
2022-12-31T16:47:03.697Z,16.79
2022-12-31T16:49:34.713Z,16.78
2022-12-31T16:52:09.637Z,16.71
2022-12-31T16:54:41.886Z,16.69
2022-12-31T16:57:22.333Z,16.72
2022-12-31T16:59:56.278Z,16.76
2022-12-31T17:02:29.071Z,16.73
2022-12-31T17:04:57.956Z,16.70
2022-12-31T17:07:40.528Z,16.73
2022-12-31T17:10:22.946Z,16.68
2022-12-31T17:15:46.879Z,16.65
2022-12-31T17:18:21.874Z,16.66
2022-12-31T17:20:52.674Z,16.69
2022-12-31T17:23:28.522Z,16.64
2022-12-31T17:26:02.522Z,16.63
2022-12-31T17:28:43.219Z,16.66
2022-12-31T17:31:31.797Z,16.61
2022-12-31T17:34:26.167Z,16.54
2022-12-31T17:37:02.532Z,16.51
2022-12-31T17:39:46.934Z,16.52
2022-12-31T17:42:25.789Z,16.53
2022-12-31T17:44:59.661Z,16.54
2022-12-31T17:47:37.149Z,16.55
2022-12-31T17:50:21.340Z,16.51
2022-12-31T17:52:50.415Z,16.58
2022-12-31T17:55:21.238Z,16.60
2022-12-31T17:57:53.718Z,16.63
2022-12-31T18:00:26.870Z,16.66
2022-12-31T18:02:55.696Z,16.64
2022-12-31T18:05:26.482Z,16.71
2022-12-31T18:07:55.549Z,16.74
2022-12-31T18:10:27.551Z,16.73
2022-12-31T18:12:58.250Z,16.74
2022-12-31T18:15:27.237Z,16.72
2022-12-31T18:17:55.865Z,16.71
2022-12-31T18:20:25.472Z,16.68
2022-12-31T18:22:55.206Z,16.70
2022-12-31T18:25:26.025Z,16.64
2022-12-31T18:27:54.899Z,16.66
2022-12-31T18:30:23.641Z,16.68
2022-12-31T18:32:52.656Z,16.71
2022-12-31T18:38:17.021Z,16.71
2022-12-31T18:43:42.103Z,16.71
2022-12-31T18:46:13.555Z,16.79
2022-12-31T18:48:43.633Z,16.78
2022-12-31T18:51:15.628Z,16.78
2022-12-31T18:53:44.342Z,16.74
2022-12-31T18:56:18.007Z,16.71
2022-12-31T18:58:47.525Z,16.75
2022-12-31T19:01:30.096Z,16.76
2022-12-31T19:04:01.388Z,16.83
2022-12-31T19:06:31.144Z,16.81
2022-12-31T19:09:01.194Z,16.81
2022-12-31T19:11:32.318Z,16.88
2022-12-31T19:14:01.082Z,16.90
2022-12-31T19:16:29.863Z,16.92
2022-12-31T19:19:01.530Z,16.98
2022-12-31T19:21:32.539Z,17.03
2022-12-31T19:24:01.248Z,16.96
2022-12-31T19:26:31.988Z,16.99
2022-12-31T19:29:00.692Z,16.89
2022-12-31T19:31:29.370Z,16.84
2022-12-31T19:33:58.106Z,16.80
2022-12-31T19:36:26.808Z,16.84
2022-12-31T19:38:55.516Z,16.82
2022-12-31T19:41:24.344Z,16.80
2022-12-31T19:43:55.129Z,16.84
2022-12-31T19:46:24.634Z,16.81
2022-12-31T19:48:54.013Z,16.84
2022-12-31T19:51:23.507Z,16.84
2022-12-31T19:53:52.301Z,16.90
2022-12-31T19:56:22.403Z,16.86
2022-12-31T19:58:51.070Z,16.91
2022-12-31T20:01:25.165Z,16.89
2022-12-31T20:03:55.998Z,16.85
2022-12-31T20:06:24.661Z,16.91
2022-12-31T20:08:53.304Z,16.94
2022-12-31T20:11:25.305Z,16.89
2022-12-31T20:13:55.038Z,16.96
2022-12-31T20:16:29.297Z,16.95
2022-12-31T20:18:58.086Z,16.91
2022-12-31T20:21:29.872Z,16.90
2022-12-31T20:23:58.385Z,16.78
2022-12-31T20:26:27.525Z,16.86
2022-12-31T20:28:56.269Z,16.87
2022-12-31T20:31:27.826Z,16.79
2022-12-31T20:33:57.352Z,16.83
2022-12-31T20:36:26.905Z,16.82
2022-12-31T20:38:55.621Z,16.80
2022-12-31T20:41:25.646Z,16.85
2022-12-31T20:43:54.474Z,16.83
2022-12-31T20:46:28.044Z,16.82
2022-12-31T20:48:59.923Z,16.81
2022-12-31T20:51:30.165Z,16.71
2022-12-31T20:54:03.011Z,16.79
2022-12-31T20:56:34.334Z,16.80
2022-12-31T20:59:04.219Z,16.85
2022-12-31T21:01:55.416Z,16.87
2022-12-31T21:04:24.366Z,16.82
2022-12-31T21:06:53.777Z,16.81
2022-12-31T21:14:44.399Z,16.79
2022-12-31T21:19:35.111Z,16.83
2022-12-31T21:22:06.934Z,16.80
2022-12-31T21:24:35.502Z,16.85
2022-12-31T21:27:06.093Z,16.88
2022-12-31T21:30:01.928Z,16.86
2022-12-31T21:32:28.665Z,16.88
2022-12-31T21:35:39.678Z,16.90
2022-12-31T21:37:57.942Z,16.87
2022-12-31T21:40:29.023Z,16.90
2022-12-31T21:42:57.880Z,16.91
2022-12-31T21:45:26.962Z,16.95
2022-12-31T21:48:08.916Z,16.90
2022-12-31T21:50:39.375Z,16.87
2022-12-31T21:53:08.374Z,16.96
2022-12-31T21:55:52.998Z,16.93
2022-12-31T21:58:26.872Z,16.89
2022-12-31T22:01:10.901Z,16.90
2022-12-31T22:03:39.943Z,16.96
2022-12-31T22:06:33.479Z,16.93
2022-12-31T22:09:07.313Z,16.94
2022-12-31T22:11:38.000Z,16.95
2022-12-31T22:14:06.721Z,17.01
2022-12-31T22:16:35.398Z,17.03
2022-12-31T22:19:04.352Z,17.02
2022-12-31T22:21:35.097Z,17.01
2022-12-31T22:24:04.786Z,17.00
2022-12-31T22:26:33.675Z,17.00
2022-12-31T22:29:03.046Z,17.00
2022-12-31T22:31:31.969Z,16.99
2022-12-31T22:34:01.459Z,16.99
2022-12-31T22:36:30.303Z,17.02
2022-12-31T22:39:01.343Z,16.99
2022-12-31T22:41:30.526Z,17.04
2022-12-31T22:44:04.554Z,17.07
2022-12-31T22:46:35.453Z,17.09
2022-12-31T22:49:06.435Z,17.05
2022-12-31T22:51:57.299Z,17.00
2022-12-31T22:54:27.434Z,17.05
2022-12-31T22:56:56.312Z,17.01
2022-12-31T23:03:24.196Z,16.96
2022-12-31T23:05:57.882Z,16.91
2022-12-31T23:09:03.850Z,16.95
2022-12-31T23:15:05.944Z,16.97
2022-12-31T23:18:00.120Z,16.98
2022-12-31T23:20:41.897Z,16.99
2022-12-31T23:23:16.045Z,17.02
2022-12-31T23:25:47.615Z,17.02
2022-12-31T23:28:19.201Z,16.99
2022-12-31T23:30:50.896Z,16.98
2022-12-31T23:33:22.820Z,16.97
2022-12-31T23:35:51.781Z,17.01
2022-12-31T23:38:20.976Z,16.96
2022-12-31T23:40:49.685Z,16.92
2022-12-31T23:43:23.068Z,16.91
2022-12-31T23:45:54.829Z,16.89
2022-12-31T23:48:23.592Z,16.90
2022-12-31T23:50:54.393Z,16.89
2022-12-31T23:53:24.222Z,16.90
2022-12-31T23:55:54.168Z,16.85
2022-12-31T23:58:23.698Z,16.88
